Time;durP1;ratioP1;P1;durP2;ratioP2;P2;SDS_P1;SDS_P2;PMS_P1;PMS_P2;Temp;Humidity;BMP_temperature;BMP_pressure;BME280_temperature;BME280_humidity;BME280_pressure;Samples;Min_cycle;Max_cycle;Signal;HPM_P1;HPM_P2
2022/06/15 00:01:45;;;;;;;6.93;2.90;;;;;;;21.05;45.21;100594.56;4169051;28;20425;-69
2022/06/15 00:03:48;;;;;;;4.18;2.35;;;;;;;20.94;45.29;100601.94;4154029;28;20041;-69
2022/06/15 00:05:52;;;;;;;5.80;3.00;;;;;;;20.94;45.53;100599.28;4159993;28;20045;-69
2022/06/15 00:07:54;;;;;;;5.85;2.50;;;;;;;20.91;45.25;100594.94;4159527;28;20029;-70
2022/06/15 00:09:57;;;;;;;5.43;3.03;;;;;;;20.88;45.46;100597.66;4158592;28;20461;-69
2022/06/15 00:12:00;;;;;;;5.63;3.00;;;;;;;20.80;45.77;100586.41;4161666;28;20033;-70
2022/06/15 00:14:07;;;;;;;8.52;3.10;;;;;;;20.82;45.37;100586.38;4162775;28;20417;-69
2022/06/15 00:16:10;;;;;;;6.00;2.92;;;;;;;20.78;45.80;100590.88;4153692;28;20057;-70
2022/06/15 00:18:15;;;;;;;5.20;2.40;;;;;;;20.79;46.04;100589.97;4156004;28;20485;-70
2022/06/15 00:20:18;;;;;;;7.28;2.75;;;;;;;20.72;47.21;100591.91;4153126;28;20037;-71
2022/06/15 00:22:21;;;;;;;6.20;2.65;;;;;;;20.70;47.54;100593.72;4147039;28;20078;-71
2022/06/15 00:24:24;;;;;;;5.00;2.72;;;;;;;20.62;47.62;100586.84;4158271;28;20046;-71
2022/06/15 00:26:27;;;;;;;4.65;2.58;;;;;;;20.55;48.14;100575.59;4164180;28;20049;-71
2022/06/15 00:28:30;;;;;;;8.57;3.10;;;;;;;20.51;48.07;100581.84;4151527;28;20124;-70
2022/06/15 00:30:33;;;;;;;3.38;2.40;;;;;;;20.52;47.81;100573.03;4138819;28;20042;-71
2022/06/15 00:32:36;;;;;;;5.20;2.80;;;;;;;20.52;47.38;100568.59;4147248;28;20054;-71
2022/06/15 00:34:41;;;;;;;5.45;2.83;;;;;;;20.52;47.54;100573.88;4164534;28;20124;-70
2022/06/15 00:36:44;;;;;;;6.22;3.00;;;;;;;20.42;48.03;100567.09;4162869;28;20128;-70
2022/06/15 00:38:49;;;;;;;4.55;2.92;;;;;;;20.43;48.16;100576.78;4175767;28;20044;-70
2022/06/15 00:40:52;;;;;;;7.57;3.30;;;;;;;20.36;48.35;100565.47;4143914;28;20046;-70
2022/06/15 00:42:55;;;;;;;7.70;3.13;;;;;;;20.32;48.56;100573.53;4165866;28;20129;-70
2022/06/15 00:44:57;;;;;;;5.88;2.55;;;;;;;20.27;48.93;100573.63;4160298;28;20066;-70
2022/06/15 00:47:03;;;;;;;8.35;3.53;;;;;;;20.22;49.20;100581.66;4163219;28;20301;-71
2022/06/15 00:49:09;;;;;;;8.95;2.85;;;;;;;20.22;49.12;100575.50;4157744;28;20124;-70
2022/06/15 00:51:14;;;;;;;4.88;2.75;;;;;;;20.15;49.99;100580.06;4160583;28;20413;-70
2022/06/15 00:53:18;;;;;;;4.70;2.55;;;;;;;20.02;50.36;100578.63;4153539;28;20128;-70
2022/06/15 00:55:26;;;;;;;5.85;2.58;;;;;;;20.00;50.55;100570.72;4152632;28;20122;-72
2022/06/15 00:57:29;;;;;;;9.30;2.78;;;;;;;19.91;51.08;100575.38;4161496;28;20048;-72
2022/06/15 00:59:36;;;;;;;9.20;3.60;;;;;;;19.95;51.39;100571.75;4164347;28;20124;-72
2022/06/15 01:01:40;;;;;;;6.57;3.05;;;;;;;19.95;51.18;100572.63;4160316;28;20355;-69
2022/06/15 01:03:43;;;;;;;4.22;2.53;;;;;;;20.01;51.16;100572.47;4140517;28;20097;-71
2022/06/15 01:05:57;;;;;;;6.53;2.75;;;;;;;20.01;51.48;100569.81;4146212;28;20049;-72
2022/06/15 01:08:25;;;;;;;7.70;2.65;;;;;;;19.94;51.88;100565.59;4155262;28;20531;-71
2022/06/15 01:10:41;;;;;;;7.30;3.00;;;;;;;19.93;51.64;100563.00;4158882;28;20041;-72
2022/06/15 01:12:54;;;;;;;7.65;3.28;;;;;;;19.91;51.83;100565.66;4158461;28;20448;-71
2022/06/15 01:15:15;;;;;;;10.85;3.03;;;;;;;19.85;52.77;100563.19;4144543;28;20050;-72
2022/06/15 01:17:34;;;;;;;7.45;3.72;;;;;;;19.82;52.87;100560.59;4162520;28;20068;-72
2022/06/15 01:20:00;;;;;;;6.78;3.10;;;;;;;19.78;53.19;100554.53;4160616;28;20044;-72
2022/06/15 01:22:11;;;;;;;;;;;;;;;19.52;53.48;100555.06;4159429;28;20038;-72
2022/06/15 01:24:51;;;;;;;10.45;3.47;;;;;;;19.60;53.14;100557.56;4164401;28;20020;-72
2022/06/15 01:27:38;;;;;;;7.78;3.10;;;;;;;19.54;53.14;100553.28;4159786;28;20460;-72
2022/06/15 01:30:13;;;;;;;5.63;2.40;;;;;;;19.54;51.73;100554.13;4157706;28;20445;-72
2022/06/15 01:32:26;;;;;;;5.93;2.50;;;;;;;19.48;51.18;100549.00;4152760;28;20394;-72
2022/06/15 01:34:37;;;;;;;6.43;2.53;;;;;;;19.46;50.70;100542.88;4158288;28;20072;-71
2022/06/15 01:36:47;;;;;;;6.47;2.05;;;;;;;19.42;49.85;100549.13;4147489;28;20398;-72
2022/06/15 01:39:00;;;;;;;6.78;2.63;;;;;;;19.38;49.65;100550.09;4161466;28;20048;-72
2022/06/15 01:41:10;;;;;;;6.45;2.40;;;;;;;19.35;48.90;100543.09;4154569;28;20070;-72
2022/06/15 01:43:19;;;;;;;6.05;2.20;;;;;;;19.31;48.21;100545.84;4162227;28;20045;-72
2022/06/15 01:45:27;;;;;;;3.45;2.72;;;;;;;19.22;47.91;100552.16;4151129;28;20042;-72
2022/06/15 01:47:36;;;;;;;5.50;2.65;;;;;;;19.10;47.49;100549.75;4162355;28;20476;-72
2022/06/15 01:49:43;;;;;;;9.40;2.10;;;;;;;19.05;47.32;100552.50;4162871;28;20113;-71
2022/06/15 01:51:47;;;;;;;4.57;2.20;;;;;;;19.09;47.93;100548.91;4142948;28;20045;-71
2022/06/15 01:53:56;;;;;;;3.53;1.90;;;;;;;19.17;47.39;100546.09;4145513;28;20037;-71
2022/06/15 01:56:05;;;;;;;6.30;2.40;;;;;;;19.20;47.59;100548.69;4162993;28;20436;-72
2022/06/15 01:58:10;;;;;;;4.00;2.17;;;;;;;19.27;48.16;100546.78;4154167;28;20042;-71
2022/06/15 02:00:17;;;;;;;4.82;2.38;;;;;;;19.32;47.68;100540.53;4142533;28;20094;-71
2022/06/15 02:02:28;;;;;;;4.88;2.13;;;;;;;19.37;47.45;100548.34;4157033;28;20429;-71
2022/06/15 02:04:38;;;;;;;4.20;2.10;;;;;;;19.38;47.33;100543.94;4161062;28;20435;-71
2022/06/15 02:06:49;;;;;;;6.90;2.20;;;;;;;19.34;47.84;100548.41;4159195;28;20033;-72
2022/06/15 02:09:00;;;;;;;4.85;2.17;;;;;;;19.29;49.32;100547.63;4156721;28;20116;-72
2022/06/15 02:11:09;;;;;;;3.90;1.90;;;;;;;19.27;48.44;100552.94;4139754;28;20101;-72
2022/06/15 02:13:20;;;;;;;3.22;1.90;;;;;;;19.30;47.76;100552.00;4158315;28;20037;-72
2022/06/15 02:15:28;;;;;;;4.78;1.98;;;;;;;19.31;47.76;100554.59;4150669;28;20124;-72
2022/06/15 02:17:36;;;;;;;5.80;2.20;;;;;;;19.37;47.21;100553.63;4162551;28;20423;-72
2022/06/15 02:19:44;;;;;;;6.03;2.50;;;;;;;19.36;49.08;100543.97;4142540;28;20069;-72
2022/06/15 02:21:51;;;;;;;4.25;1.95;;;;;;;19.33;48.47;100551.94;4160721;28;20037;-72
2022/06/15 02:23:57;;;;;;;5.53;2.30;;;;;;;19.31;48.40;100551.97;4159638;28;20043;-71
2022/06/15 02:26:02;;;;;;;5.32;2.00;;;;;;;19.25;48.20;100549.47;4161466;28;20060;-72
2022/06/15 02:28:06;;;;;;;5.47;1.98;;;;;;;19.20;47.83;100551.31;4156817;28;20535;-72
2022/06/15 02:30:13;;;;;;;4.18;2.00;;;;;;;19.21;48.04;100546.94;4152324;28;20099;-72
2022/06/15 02:32:19;;;;;;;5.88;2.20;;;;;;;19.15;48.03;100545.28;4168787;28;20044;-72
2022/06/15 02:34:21;;;;;;;4.75;1.75;;;;;;;19.14;48.50;100548.81;4161506;28;20045;-72
2022/06/15 02:36:26;;;;;;;6.05;2.45;;;;;;;19.18;48.24;100539.94;4162095;28;20108;-72
2022/06/15 02:38:32;;;;;;;8.57;2.50;;;;;;;19.16;47.94;100536.47;4133525;28;20048;-72
2022/06/15 02:40:37;;;;;;;6.75;2.38;;;;;;;19.14;48.21;100535.63;4156062;28;20343;-72
2022/06/15 02:42:41;;;;;;;5.03;2.40;;;;;;;19.14;48.10;100540.91;4173750;28;20037;-73
2022/06/15 02:44:51;;;;;;;4.85;2.20;;;;;;;19.13;48.71;100533.91;4156257;28;20401;-73
2022/06/15 02:46:56;;;;;;;4.95;2.30;;;;;;;19.08;48.46;100538.38;4141900;28;20077;-73
2022/06/15 02:48:59;;;;;;;4.45;1.90;;;;;;;19.00;48.96;100534.13;4162139;28;20049;-72
2022/06/15 02:51:08;;;;;;;3.75;2.10;;;;;;;19.00;48.87;100539.41;4155901;28;20041;-72
2022/06/15 02:53:20;;;;;;;6.72;2.38;;;;;;;19.01;47.95;100535.00;4149018;28;20111;-72
2022/06/15 02:55:26;;;;;;;5.22;2.20;;;;;;;19.05;47.64;100535.81;4148679;28;20038;-73
2022/06/15 02:57:29;;;;;;;4.47;2.00;;;;;;;19.12;47.00;100546.19;4162901;28;20544;-73
2022/06/15 02:59:34;;;;;;;7.17;2.37;;;;;;;19.12;47.27;100538.28;4156635;28;20045;-72
2022/06/15 03:01:37;;;;;;;6.88;2.35;;;;;;;19.14;46.35;100536.50;4153704;28;20814;-72
2022/06/15 03:03:41;;;;;;;5.32;2.08;;;;;;;19.19;46.86;100547.81;4133462;28;20136;-72
2022/06/15 03:05:58;;;;;;;4.38;2.03;;;;;;;19.17;47.85;100549.63;4138677;28;20472;-72
2022/06/15 03:08:01;;;;;;;9.25;3.70;;;;;;;19.07;47.64;100555.97;4159422;28;20042;-71
2022/06/15 03:10:07;;;;;;;6.03;2.50;;;;;;;19.07;48.29;100555.97;4161378;28;20447;-71
2022/06/15 03:12:11;;;;;;;5.28;2.17;;;;;;;19.00;48.57;100564.91;4143124;28;20348;-71
2022/06/15 03:14:14;;;;;;;6.53;2.10;;;;;;;19.02;46.58;100555.19;4147167;28;20038;-71
2022/06/15 03:16:19;;;;;;;6.55;2.50;;;;;;;19.01;46.47;100556.06;4152646;28;20543;-71
2022/06/15 03:18:23;;;;;;;5.65;2.17;;;;;;;19.00;46.58;100555.22;4161620;28;20038;-73
2022/06/15 03:20:28;;;;;;;6.07;2.03;;;;;;;19.05;45.72;100557.75;4148025;28;20034;-72
2022/06/15 03:22:34;;;;;;;6.22;1.80;;;;;;;19.03;45.83;100556.94;4134856;28;20171;-72
2022/06/15 03:24:41;;;;;;;4.95;1.83;;;;;;;19.05;45.26;100555.13;4160644;28;20084;-71
2022/06/15 03:26:48;;;;;;;4.95;1.75;;;;;;;19.04;45.14;100557.78;4155386;28;20038;-70
2022/06/15 03:28:55;;;;;;;4.82;2.03;;;;;;;19.04;45.05;100561.31;4157714;28;20453;-71
2022/06/15 03:31:01;;;;;;;6.63;2.30;;;;;;;19.06;44.52;100561.28;4152789;28;20060;-71
2022/06/15 03:33:05;;;;;;;4.22;1.98;;;;;;;18.97;45.19;100564.97;4159729;28;20042;-70
2022/06/15 03:35:13;;;;;;;5.88;1.83;;;;;;;18.95;45.17;100561.47;4160524;28;20089;-71
2022/06/15 03:37:17;;;;;;;5.50;2.20;;;;;;;19.00;44.81;100563.13;4156958;28;20499;-71
2022/06/15 03:39:20;;;;;;;9.70;2.08;;;;;;;19.00;44.57;100563.13;4157738;28;20513;-71
2022/06/15 03:41:25;;;;;;;4.75;2.15;;;;;;;18.92;45.08;100564.16;4164608;28;20103;-70
2022/06/15 03:43:31;;;;;;;3.17;1.83;;;;;;;18.88;45.10;100557.22;4161741;28;20045;-70
2022/06/15 03:45:35;;;;;;;;;;;;;;;18.74;45.44;100563.56;4153734;28;20029;-69
2022/06/15 03:47:38;;;;;;;4.82;2.28;;;;;;;18.83;45.43;100560.75;4163280;28;19921;-69
2022/06/15 03:49:42;;;;;;;;;;;;;;;18.66;45.71;100565.47;4164757;28;20088;-70
2022/06/15 03:51:46;;;;;;;5.68;1.88;;;;;;;18.73;45.78;100567.09;4160893;28;20447;-69
2022/06/15 03:53:48;;;;;;;3.25;1.70;;;;;;;18.82;45.76;100566.06;4160469;28;20040;-69
2022/06/15 03:55:52;;;;;;;7.07;2.50;;;;;;;18.82;45.51;100561.69;4147244;28;20072;-69
2022/06/15 03:57:57;;;;;;;3.58;1.80;;;;;;;18.89;45.34;100566.84;4155218;28;20153;-70
2022/06/15 04:00:01;;;;;;;5.05;2.60;;;;;;;18.84;45.85;100569.56;4161441;28;20038;-70
2022/06/15 04:02:22;;;;;;;3.60;1.70;;;;;;;18.78;46.04;100570.53;4159350;28;20097;-70
2022/06/15 04:04:26;;;;;;;3.85;2.25;;;;;;;18.82;45.83;100558.16;4164281;28;20527;-69
2022/06/15 04:06:31;;;;;;;6.45;1.73;;;;;;;18.84;45.85;100559.00;4160180;28;20077;-70
2022/06/15 04:08:38;;;;;;;7.13;2.75;;;;;;;18.84;45.73;100569.56;4161696;28;20787;-73
2022/06/15 04:11:03;;;;;;;8.05;2.50;;;;;;;18.78;45.70;100562.63;4143554;28;20042;-73
2022/06/15 04:13:06;;;;;;;5.80;1.98;;;;;;;18.80;45.94;100563.44;4141618;28;20140;-72
2022/06/15 04:15:12;;;;;;;6.90;2.63;;;;;;;18.77;46.03;100560.03;4161034;28;20654;-71
2022/06/15 04:17:19;;;;;;;4.07;2.10;;;;;;;18.78;46.13;100561.75;4158905;28;20041;-72
2022/06/15 04:19:34;;;;;;;4.65;2.20;;;;;;;18.84;46.00;100554.59;4163559;28;20042;-72
2022/06/15 04:21:37;;;;;;;4.97;2.10;;;;;;;18.76;46.17;100556.53;4163395;28;20504;-72
2022/06/15 04:23:44;;;;;;;6.38;2.58;;;;;;;18.86;46.28;100561.63;4161067;28;20036;-72
2022/06/15 04:25:51;;;;;;;4.88;2.67;;;;;;;18.82;46.36;100556.41;4158034;28;20065;-71
2022/06/15 04:27:57;;;;;;;6.95;2.47;;;;;;;18.78;46.18;100560.00;4142884;28;20049;-61
2022/06/15 04:30:01;;;;;;;4.10;2.20;;;;;;;18.92;46.10;100561.53;4156953;28;20504;-62
2022/06/15 04:32:07;;;;;;;8.63;2.97;;;;;;;19.04;46.03;100560.44;4160814;28;20128;-62
2022/06/15 04:34:12;;;;;;;4.68;2.50;;;;;;;19.00;46.85;100562.25;4156813;28;20644;-62
2022/06/15 04:36:16;;;;;;;6.47;2.60;;;;;;;19.07;47.10;100566.53;4154223;28;20120;-62
2022/06/15 04:38:25;;;;;;;5.75;1.95;;;;;;;19.25;47.66;100570.56;4157891;28;20582;-62
2022/06/15 04:40:35;;;;;;;5.45;2.05;;;;;;;19.51;46.95;100566.53;4139778;28;20527;-62
2022/06/15 04:42:38;;;;;;;4.40;2.10;;;;;;;19.66;46.86;100562.69;4161808;28;20061;-62
2022/06/15 04:44:41;;;;;;;6.45;2.17;;;;;;;19.92;47.21;100564.78;4166626;28;20060;-62
2022/06/15 04:46:44;;;;;;;5.88;2.58;;;;;;;20.19;46.45;100565.03;4152843;28;20448;-62
2022/06/15 04:48:50;;;;;;;3.58;2.20;;;;;;;20.30;46.65;100568.28;4161739;28;20590;-62
2022/06/15 04:50:55;;;;;;;3.33;1.90;;;;;;;20.36;46.88;100569.91;4158797;28;20478;-62
2022/06/15 04:53:05;;;;;;;4.78;1.73;;;;;;;20.37;47.00;100575.16;4170015;28;20045;-62
2022/06/15 04:55:09;;;;;;;6.25;2.13;;;;;;;20.43;46.56;100574.13;4162902;28;20544;-62
2022/06/15 04:57:13;;;;;;;4.22;2.25;;;;;;;20.49;44.92;100571.31;4164469;28;20467;-62
2022/06/15 04:59:17;;;;;;;5.65;2.55;;;;;;;20.52;44.68;100573.03;4156664;28;20598;-62
2022/06/15 05:01:22;;;;;;;6.50;2.25;;;;;;;20.51;44.95;100577.44;4160152;28;20080;-62
2022/06/15 05:03:25;;;;;;;5.82;2.67;;;;;;;20.55;44.82;100573.81;4155258;28;20834;-62
2022/06/15 05:05:32;;;;;;;8.98;2.42;;;;;;;20.57;44.55;100577.28;4140012;28;20048;-62
2022/06/15 05:07:34;;;;;;;;;;;;;;;20.56;44.55;100579.97;4141463;28;20034;-62
2022/06/15 05:09:38;;;;;;;3.67;2.30;;;;;;;20.50;45.00;100582.75;4151588;28;19924;-62
2022/06/15 05:11:41;;;;;;;7.32;2.75;;;;;;;20.58;44.79;100583.44;4140268;28;20057;-62
2022/06/15 05:13:44;;;;;;;6.30;2.60;;;;;;;20.68;43.77;100578.81;4159152;28;20120;-62
2022/06/15 05:15:47;;;;;;;10.70;2.65;;;;;;;20.64;44.85;100585.91;4135863;28;20505;-62
2022/06/15 05:17:50;;;;;;;5.75;2.38;;;;;;;20.55;44.76;100583.50;4152509;28;20045;-62
2022/06/15 05:19:53;;;;;;;8.82;2.75;;;;;;;20.50;45.41;100590.66;4163839;28;20044;-62
2022/06/15 05:21:59;;;;;;;5.75;2.67;;;;;;;20.61;44.63;100588.63;4155228;28;20080;-62
2022/06/15 05:24:07;;;;;;;3.72;2.05;;;;;;;20.65;45.45;100589.44;4164030;28;20513;-62
2022/06/15 05:26:24;;;;;;;3.08;1.92;;;;;;;20.77;45.14;100593.56;4163773;28;20433;-62
2022/06/15 05:28:29;;;;;;;8.43;2.40;;;;;;;20.78;45.03;100590.88;4157785;28;20042;-62
2022/06/15 05:30:36;;;;;;;5.30;2.15;;;;;;;20.87;44.85;100595.91;4156481;28;20143;-62
2022/06/15 05:32:40;;;;;;;3.35;1.98;;;;;;;20.88;44.87;100589.75;4143801;28;20048;-62
2022/06/15 05:34:43;;;;;;;8.05;2.80;;;;;;;20.87;44.77;100590.63;4162799;28;20076;-62
2022/06/15 05:36:47;;;;;;;7.00;2.60;;;;;;;20.87;44.84;100595.91;4159655;28;20037;-62
2022/06/15 05:38:51;;;;;;;7.63;2.00;;;;;;;20.94;44.83;100594.00;4158097;28;20288;-63
2022/06/15 05:40:54;;;;;;;5.68;2.13;;;;;;;20.96;45.04;100593.94;4161006;28;20050;-62
2022/06/15 05:42:58;;;;;;;4.53;2.38;;;;;;;20.98;44.65;100594.78;4167872;28;20045;-62
2022/06/15 05:45:03;;;;;;;6.43;2.47;;;;;;;21.04;44.68;100586.66;4156980;28;20037;-62
2022/06/15 05:47:06;;;;;;;5.05;2.10;;;;;;;21.06;44.17;100591.00;4157455;28;20409;-62
2022/06/15 05:49:34;;;;;;;6.03;2.33;;;;;;;21.09;44.58;100592.72;4150257;28;20050;-62
2022/06/15 05:51:38;;;;;;;7.03;2.55;;;;;;;21.15;44.28;100587.25;4155396;28;20042;-62
2022/06/15 05:53:41;;;;;;;8.25;2.88;;;;;;;21.12;44.04;100591.75;4161379;28;20030;-63
2022/06/15 05:55:45;;;;;;;5.10;2.30;;;;;;;21.08;44.38;100583.03;4163556;28;20056;-62
2022/06/15 05:58:06;;;;;;;9.40;2.63;;;;;;;21.12;44.64;100587.34;4158132;28;20056;-62
2022/06/15 06:00:28;;;;;;;6.28;2.63;;;;;;;21.22;44.28;100595.88;4167711;28;20055;-62
2022/06/15 06:02:50;;;;;;;9.65;2.58;;;;;;;21.31;44.30;100590.34;4156569;28;20519;-62
2022/06/15 06:05:12;;;;;;;6.68;2.78;;;;;;;21.32;44.26;100591.19;4162828;28;20056;-62
2022/06/15 06:07:34;;;;;;;7.45;2.47;;;;;;;21.38;44.16;100596.31;4153161;28;20056;-62
2022/06/15 06:09:55;;;;;;;7.80;2.75;;;;;;;21.50;43.98;100595.97;4156169;28;20507;-62
2022/06/15 06:12:18;;;;;;;7.32;2.50;;;;;;;21.55;43.66;100591.44;4174249;28;20056;-62
2022/06/15 06:14:40;;;;;;;6.63;2.83;;;;;;;21.56;43.83;100593.16;4157621;28;20071;-62
2022/06/15 06:17:02;;;;;;;7.20;2.63;;;;;;;21.66;43.76;100596.41;4157345;28;20091;-62
2022/06/15 06:19:23;;;;;;;9.32;2.90;;;;;;;21.66;43.94;100590.25;4157190;28;20431;-62
2022/06/15 06:21:45;;;;;;;4.85;2.75;;;;;;;21.78;43.51;100595.16;4158090;28;20045;-62
2022/06/15 06:24:07;;;;;;;7.47;2.72;;;;;;;21.85;43.59;100596.72;4158582;28;20099;-62
2022/06/15 06:26:31;;;;;;;4.25;2.22;;;;;;;21.85;43.74;100599.38;4156090;28;20134;-62
2022/06/15 06:28:56;;;;;;;5.72;2.17;;;;;;;21.82;43.71;100588.88;4161100;28;20112;-62
2022/06/15 06:31:19;;;;;;;10.57;3.53;;;;;;;21.79;43.41;100591.63;4156921;28;20061;-62
2022/06/15 06:33:41;;;;;;;8.45;3.22;;;;;;;21.81;43.65;100594.22;4159288;28;20048;-62
2022/06/15 06:36:06;;;;;;;5.82;2.67;;;;;;;21.94;43.49;100587.63;4158626;28;20137;-62
2022/06/15 06:38:27;;;;;;;6.90;2.40;;;;;;;22.07;43.20;100594.28;4163117;28;20056;-62
2022/06/15 06:40:50;;;;;;;6.93;2.63;;;;;;;22.17;43.04;100592.22;4162362;28;20064;-62
2022/06/15 06:43:12;;;;;;;7.65;2.85;;;;;;;22.23;43.13;100586.72;4156154;28;20832;-62
2022/06/15 06:45:35;;;;;;;6.85;3.20;;;;;;;22.29;43.02;100589.16;4154681;28;20051;-62
2022/06/15 06:47:59;;;;;;;5.57;2.70;;;;;;;22.38;42.73;100589.81;4150522;28;20052;-62
2022/06/15 06:50:23;;;;;;;6.40;2.80;;;;;;;22.50;41.93;100589.38;4154635;28;20076;-62
2022/06/15 06:52:45;;;;;;;7.22;2.65;;;;;;;22.48;42.04;100578.84;4151376;28;20518;-62
2022/06/15 06:55:07;;;;;;;5.95;2.75;;;;;;;22.52;42.36;100586.72;4149816;28;20523;-62
2022/06/15 06:57:28;;;;;;;7.15;2.72;;;;;;;22.53;42.39;100589.31;4160076;28;20076;-62
2022/06/15 06:59:50;;;;;;;7.05;2.60;;;;;;;22.50;42.62;100584.09;4159799;28;20055;-62
2022/06/15 07:02:13;;;;;;;7.10;2.45;;;;;;;22.59;42.90;100588.22;4161892;28;20072;-62
2022/06/15 07:04:35;;;;;;;6.35;2.88;;;;;;;22.64;43.10;100586.28;4158762;28;20460;-62
2022/06/15 07:06:58;;;;;;;4.85;2.33;;;;;;;22.63;43.05;100590.75;4154702;28;20130;-63
2022/06/15 07:09:20;;;;;;;5.55;3.17;;;;;;;22.61;42.95;100595.19;4156049;28;20051;-62
2022/06/15 07:11:43;;;;;;;4.15;2.38;;;;;;;22.61;42.78;100587.25;4157336;28;20056;-62
2022/06/15 07:14:06;;;;;;;7.13;2.20;;;;;;;22.75;42.89;100593.88;4162668;28;20484;-62
2022/06/15 07:16:33;;;;;;;5.10;2.03;;;;;;;22.81;42.81;100596.31;4155453;28;20096;-62
2022/06/15 07:18:56;;;;;;;8.60;2.55;;;;;;;22.84;42.86;100598.88;4157821;28;20439;-62
2022/06/15 07:21:20;;;;;;;5.45;2.70;;;;;;;22.92;42.81;100593.28;4149309;28;20045;-62
2022/06/15 07:23:43;;;;;;;5.80;2.50;;;;;;;22.88;42.13;100595.19;4162761;28;20129;-63
2022/06/15 07:26:05;;;;;;;5.60;2.50;;;;;;;22.89;42.64;100590.75;4153533;28;20044;-62
2022/06/15 07:28:27;;;;;;;8.05;2.95;;;;;;;22.97;42.65;100589.56;4163435;28;20048;-62
2022/06/15 07:30:49;;;;;;;6.32;4.03;;;;;;;22.93;42.35;100595.88;4161915;28;20067;-62
2022/06/15 07:33:10;;;;;;;6.55;3.15;;;;;;;22.87;42.04;100597.88;4163030;28;20413;-62
2022/06/15 07:35:36;;;;;;;7.30;2.80;;;;;;;22.92;42.20;100599.44;4148629;28;20130;-62
2022/06/15 07:37:57;;;;;;;;;;;;;;;22.89;42.46;100606.66;4160621;28;20310;-62
2022/06/15 07:40:38;;;;;;;4.97;2.45;;;;;;;23.00;42.18;100604.50;4157131;28;20395;-62
2022/06/15 07:43:05;;;;;;;7.97;2.75;;;;;;;23.08;41.81;100597.13;4160770;28;20520;-62
2022/06/15 07:45:27;;;;;;;9.43;3.63;;;;;;;23.02;41.54;100600.84;4154890;28;20095;-62
2022/06/15 07:50:29;;;;;;;5.07;2.80;;;;;;;23.24;41.88;100593.97;4155388;28;20052;-62
2022/06/15 07:52:54;;;;;;;6.50;3.50;;;;;;;23.26;42.36;100593.00;4163149;28;20044;-62
2022/06/15 07:55:19;;;;;;;6.28;2.65;;;;;;;23.25;41.80;100591.25;4151822;28;20412;-62
2022/06/15 07:57:41;;;;;;;6.63;3.10;;;;;;;23.28;41.71;100593.78;4158847;28;20048;-62
2022/06/15 08:00:08;;;;;;;9.05;2.75;;;;;;;23.35;41.11;100589.13;4161140;28;20084;-62
2022/06/15 08:02:33;;;;;;;7.68;3.28;;;;;;;23.40;41.20;100597.78;4156744;28;20099;-62
2022/06/15 08:04:54;;;;;;;5.05;2.40;;;;;;;23.47;41.53;100593.97;4156508;28;20124;-62
2022/06/15 08:07:17;;;;;;;6.10;2.70;;;;;;;23.58;40.88;100596.22;4162390;28;20056;-62
2022/06/15 08:09:42;;;;;;;7.20;2.72;;;;;;;23.65;41.13;100595.06;4155360;28;20048;-62
2022/06/15 08:12:14;;;;;;;4.95;2.80;;;;;;;23.78;40.89;100597.25;4159209;28;20135;-62
2022/06/15 08:14:38;;;;;;;10.13;3.45;;;;;;;23.68;39.62;100594.97;4147378;28;20146;-63
2022/06/15 08:17:00;;;;;;;8.77;3.47;;;;;;;23.75;39.55;100592.06;4160848;28;20056;-62
2022/06/15 08:19:22;;;;;;;9.25;2.63;;;;;;;23.83;40.33;100593.50;4158262;28;20554;-63
2022/06/15 08:21:44;;;;;;;4.57;2.78;;;;;;;23.91;40.74;100590.56;4157503;28;22609;-62
2022/06/15 08:24:07;;;;;;;13.10;3.30;;;;;;;23.97;39.98;100592.97;4164560;28;20083;-62
2022/06/15 08:26:34;;;;;;;8.30;2.97;;;;;;;24.16;38.75;100594.91;4158906;28;20056;-62
2022/06/15 08:29:00;;;;;;;7.05;2.78;;;;;;;24.22;39.67;100589.34;4167178;28;20052;-63
2022/06/15 08:31:22;;;;;;;7.25;2.83;;;;;;;24.26;39.92;100598.91;4158101;28;20063;-63
2022/06/15 08:33:44;;;;;;;5.95;3.00;;;;;;;24.37;38.88;100588.72;4162978;28;20056;-62
2022/06/15 08:36:12;;;;;;;10.00;3.95;;;;;;;24.36;39.05;100589.66;4167894;28;20602;-62
2022/06/15 08:38:34;;;;;;;11.38;3.85;;;;;;;24.40;39.29;100593.06;4154992;28;20148;-62
2022/06/15 08:41:01;;;;;;;11.93;4.30;;;;;;;24.42;39.02;100593.84;4165164;28;20064;-62
2022/06/15 08:43:48;;;;;;;9.10;3.50;;;;;;;24.56;38.70;100585.28;4158699;28;20123;-62
2022/06/15 08:46:33;;;;;;;5.57;3.50;;;;;;;24.61;38.52;100579.81;4163857;28;20130;-62
2022/06/15 08:49:11;;;;;;;7.15;3.42;;;;;;;24.77;38.58;100578.22;4164143;28;20099;-62
2022/06/15 08:51:37;;;;;;;7.20;3.33;;;;;;;24.78;38.94;100579.09;4152303;28;20479;-63
2022/06/15 08:54:04;;;;;;;6.68;3.42;;;;;;;24.83;38.81;100579.78;4175638;28;20107;-62
2022/06/15 08:56:30;;;;;;;6.95;3.35;;;;;;;24.89;38.52;100582.16;4173845;28;20423;-63
2022/06/15 08:59:00;;;;;;;5.50;2.70;;;;;;;25.00;39.24;100579.91;4165159;28;20095;-62
2022/06/15 09:01:30;;;;;;;5.10;2.92;;;;;;;25.09;40.02;100584.78;4153374;28;20524;-63
2022/06/15 09:04:04;;;;;;;7.40;3.40;;;;;;;25.15;40.46;100582.81;4154219;28;20185;-61
2022/06/15 09:06:37;;;;;;;7.13;2.78;;;;;;;25.24;39.46;100585.03;4154507;28;20060;-61
2022/06/15 09:09:13;;;;;;;9.20;3.15;;;;;;;25.42;38.29;100581.59;4160869;28;20107;-61
2022/06/15 09:11:43;;;;;;;12.32;4.03;;;;;;;25.55;36.54;100581.00;4152880;28;20104;-61
2022/06/15 09:14:26;;;;;;;8.02;3.42;;;;;;;25.42;37.87;100592.25;4164886;28;20116;-61
2022/06/15 09:16:56;;;;;;;5.57;2.90;;;;;;;25.53;38.77;100588.22;4173488;28;20063;-61
2022/06/15 09:19:22;;;;;;;8.05;3.78;;;;;;;25.55;37.76;100589.00;4157184;28;20057;-61
2022/06/15 09:21:49;;;;;;;10.15;4.05;;;;;;;25.60;37.87;100589.66;4164534;28;20048;-61
2022/06/15 09:24:16;;;;;;;8.68;3.35;;;;;;;25.67;37.77;100591.09;4164499;28;20057;-71
2022/06/15 09:26:43;;;;;;;8.50;3.60;;;;;;;25.73;37.56;100585.47;4159173;28;20056;-71
2022/06/15 09:29:09;;;;;;;5.15;2.75;;;;;;;25.86;38.03;100582.22;4162197;28;20052;-71
2022/06/15 09:31:39;;;;;;;10.90;3.85;;;;;;;25.84;38.08;100582.28;4161876;28;20139;-71
2022/06/15 09:34:04;;;;;;;10.10;3.25;;;;;;;25.87;38.17;100587.47;4156439;28;20052;-71
2022/06/15 09:36:29;;;;;;;6.47;3.05;;;;;;;25.92;37.88;100582.81;4167063;28;20052;-72
2022/06/15 09:38:51;;;;;;;9.88;4.00;;;;;;;26.01;36.63;100581.53;4163391;28;20056;-72
2022/06/15 09:41:20;;;;;;;9.07;3.42;;;;;;;26.11;36.43;100588.13;4156496;28;20586;-72
2022/06/15 09:43:51;;;;;;;12.90;4.05;;;;;;;26.06;35.43;100586.63;4162901;28;20156;-72
2022/06/15 09:46:19;;;;;;;9.15;3.50;;;;;;;26.25;36.39;100589.25;4166830;28;20411;-71
2022/06/15 09:48:54;;;;;;;7.25;3.00;;;;;;;26.32;36.82;100582.69;4171318;28;20192;-71
2022/06/15 09:51:27;;;;;;;7.35;2.95;;;;;;;26.43;36.65;100577.69;4162654;28;20586;-71
2022/06/15 09:54:07;;;;;;;7.63;3.47;;;;;;;26.64;35.20;100577.53;4149171;28;20076;-71
2022/06/15 09:56:29;;;;;;;10.90;3.42;;;;;;;26.55;36.06;100572.69;4171682;28;20052;-72
2022/06/15 09:58:55;;;;;;;7.05;2.97;;;;;;;26.62;35.69;100576.72;4177282;28;20111;-72
2022/06/15 10:01:17;;;;;;;6.65;3.03;;;;;;;26.54;35.65;100577.13;4164813;28;20048;-72
2022/06/15 10:03:43;;;;;;;5.07;2.50;;;;;;;26.63;36.13;100575.81;4166464;28;20056;-71
2022/06/15 10:06:17;;;;;;;8.18;3.03;;;;;;;26.83;37.34;100567.66;4161918;28;20116;-71
2022/06/15 10:08:38;;;;;;;6.88;3.22;;;;;;;26.94;35.90;100577.78;4163912;28;20060;-72
2022/06/15 10:11:05;;;;;;;7.05;3.40;;;;;;;26.82;34.68;100584.63;4151880;28;20345;-73
2022/06/15 10:13:32;;;;;;;11.07;3.67;;;;;;;26.93;34.68;100578.72;4167228;28;20147;-72
2022/06/15 10:15:57;;;;;;;8.02;3.03;;;;;;;26.96;34.64;100573.22;4147042;28;20612;-73
2022/06/15 10:18:27;;;;;;;8.90;4.20;;;;;;;27.13;34.34;100572.34;4161942;28;20044;-76
2022/06/15 10:21:04;;;;;;;5.90;2.60;;;;;;;27.29;33.91;100563.50;4159542;28;20072;-74
2022/06/15 10:23:40;;;;;;;7.25;3.55;;;;;;;27.35;34.14;100571.22;4162605;28;20096;-74
2022/06/15 10:26:02;;;;;;;9.13;3.47;;;;;;;27.29;35.11;100566.16;4163842;28;20068;-77
2022/06/15 10:28:33;;;;;;;6.95;2.63;;;;;;;27.34;34.51;100561.47;4147168;28;20053;-77
2022/06/15 10:30:57;;;;;;;6.50;2.90;;;;;;;27.50;33.94;100558.84;4147478;28;20172;-76